Terminal Aerodrome Forecast
Issued by NWS

Home | Current Version | Previous Version | Text Only | Print | Product List | Glossary Off
Versions: 1 2 3 4 5 6 7 8 9 10 11 12 13 14 15 16 17

000
FTUS42 KMHX 230833 AAA
TAFOAJ
TAF AMD
KOAJ 230833Z 2309/2406 00000KT P6SM SKC
     FM231300 04007KT P6SM SCT050
     FM240000 10004KT P6SM SKC
      AMD LTD TO CLD VIS AND WIND=

USA.gov is the U.S. government's official web portal to all federal, state and local government web resources and services.